sensor_id;sensor_type;location;lat;lon;timestamp;temperature;humidity
71188;DHT22;58893;53.130;8.158;2022-08-19T00:00:06;21.10;70.00
71188;DHT22;58893;53.130;8.158;2022-08-19T00:02:33;21.10;70.60
71188;DHT22;58893;53.130;8.158;2022-08-19T00:04:59;21.00;75.00
71188;DHT22;58893;53.130;8.158;2022-08-19T00:07:25;21.00;69.00
71188;DHT22;58893;53.130;8.158;2022-08-19T00:09:50;21.00;69.20
71188;DHT22;58893;53.130;8.158;2022-08-19T00:12:16;21.00;69.40
71188;DHT22;58893;53.130;8.158;2022-08-19T00:14:42;20.90;69.40
71188;DHT22;58893;53.130;8.158;2022-08-19T00:17:08;20.90;69.30
71188;DHT22;58893;53.130;8.158;2022-08-19T00:19:35;20.90;69.00
71188;DHT22;58893;53.130;8.158;2022-08-19T00:22:01;20.90;68.90
71188;DHT22;58893;53.130;8.158;2022-08-19T00:24:28;20.90;68.80
71188;DHT22;58893;53.130;8.158;2022-08-19T00:26:54;20.90;68.60
71188;DHT22;58893;53.130;8.158;2022-08-19T00:29:21;20.90;68.70
71188;DHT22;58893;53.130;8.158;2022-08-19T00:31:47;20.80;68.70
71188;DHT22;58893;53.130;8.158;2022-08-19T00:34:14;20.80;68.80
71188;DHT22;58893;53.130;8.158;2022-08-19T00:36:41;20.80;69.20
71188;DHT22;58893;53.130;8.158;2022-08-19T00:39:07;20.80;69.70
71188;DHT22;58893;53.130;8.158;2022-08-19T00:41:33;20.80;70.00
71188;DHT22;58893;53.130;8.158;2022-08-19T00:46:32;20.70;68.70
71188;DHT22;58893;53.130;8.158;2022-08-19T00:49:00;20.60;69.10
71188;DHT22;58893;53.130;8.158;2022-08-19T00:51:27;20.60;69.30
71188;DHT22;58893;53.130;8.158;2022-08-19T00:53:57;20.60;70.50
71188;DHT22;58893;53.130;8.158;2022-08-19T00:56:24;20.60;70.80
71188;DHT22;58893;53.130;8.158;2022-08-19T01:01:19;20.50;71.40
71188;DHT22;58893;53.130;8.158;2022-08-19T01:03:44;20.40;68.00
71188;DHT22;58893;53.130;8.158;2022-08-19T01:06:10;20.40;68.10
71188;DHT22;58893;53.130;8.158;2022-08-19T01:08:36;20.40;68.70
71188;DHT22;58893;53.130;8.158;2022-08-19T01:11:02;20.40;70.60
71188;DHT22;58893;53.130;8.158;2022-08-19T01:13:30;20.30;73.50
71188;DHT22;58893;53.130;8.158;2022-08-19T01:16:09;20.30;67.90
71188;DHT22;58893;53.130;8.158;2022-08-19T01:18:40;20.30;68.40
71188;DHT22;58893;53.130;8.158;2022-08-19T01:21:24;20.30;68.50
71188;DHT22;58893;53.130;8.158;2022-08-19T01:23:52;20.30;68.70
71188;DHT22;58893;53.130;8.158;2022-08-19T01:26:20;20.30;69.00
71188;DHT22;58893;53.130;8.158;2022-08-19T01:28:48;20.20;69.90
71188;DHT22;58893;53.130;8.158;2022-08-19T01:31:21;20.20;70.10
71188;DHT22;58893;53.130;8.158;2022-08-19T01:33:48;20.20;69.70
71188;DHT22;58893;53.130;8.158;2022-08-19T01:36:29;20.20;69.80
71188;DHT22;58893;53.130;8.158;2022-08-19T01:38:55;20.20;70.50
71188;DHT22;58893;53.130;8.158;2022-08-19T01:41:21;20.20;72.50
71188;DHT22;58893;53.130;8.158;2022-08-19T01:43:49;20.20;71.00
71188;DHT22;58893;53.130;8.158;2022-08-19T01:46:16;20.20;71.00
71188;DHT22;58893;53.130;8.158;2022-08-19T01:48:42;20.10;71.30
71188;DHT22;58893;53.130;8.158;2022-08-19T01:51:10;20.10;68.60
71188;DHT22;58893;53.130;8.158;2022-08-19T01:53:36;20.10;68.40
71188;DHT22;58893;53.130;8.158;2022-08-19T01:56:03;20.10;68.40
71188;DHT22;58893;53.130;8.158;2022-08-19T01:58:35;20.10;68.60
71188;DHT22;58893;53.130;8.158;2022-08-19T02:01:03;20.00;68.50
71188;DHT22;58893;53.130;8.158;2022-08-19T02:03:29;20.00;68.20
71188;DHT22;58893;53.130;8.158;2022-08-19T02:05:59;20.00;68.30
71188;DHT22;58893;53.130;8.158;2022-08-19T02:08:26;20.00;68.50
71188;DHT22;58893;53.130;8.158;2022-08-19T02:10:52;19.90;68.60
71188;DHT22;58893;53.130;8.158;2022-08-19T02:13:18;19.90;68.60
71188;DHT22;58893;53.130;8.158;2022-08-19T02:15:44;19.90;68.50
71188;DHT22;58893;53.130;8.158;2022-08-19T02:18:10;19.90;68.30
71188;DHT22;58893;53.130;8.158;2022-08-19T02:20:38;19.90;68.30
71188;DHT22;58893;53.130;8.158;2022-08-19T02:23:04;19.90;68.10
71188;DHT22;58893;53.130;8.158;2022-08-19T02:25:30;19.90;67.90
71188;DHT22;58893;53.130;8.158;2022-08-19T02:27:56;19.90;67.80
71188;DHT22;58893;53.130;8.158;2022-08-19T02:30:22;19.90;67.70
71188;DHT22;58893;53.130;8.158;2022-08-19T02:32:50;19.90;68.20
71188;DHT22;58893;53.130;8.158;2022-08-19T02:35:16;19.90;70.40
71188;DHT22;58893;53.130;8.158;2022-08-19T02:37:42;19.90;71.80
71188;DHT22;58893;53.130;8.158;2022-08-19T02:40:28;19.80;70.00
71188;DHT22;58893;53.130;8.158;2022-08-19T02:42:53;19.80;75.40
71188;DHT22;58893;53.130;8.158;2022-08-19T02:45:19;19.80;71.70
71188;DHT22;58893;53.130;8.158;2022-08-19T02:47:45;19.80;73.20
71188;DHT22;58893;53.130;8.158;2022-08-19T02:50:11;19.80;75.70
71188;DHT22;58893;53.130;8.158;2022-08-19T02:52:38;19.80;79.70
71188;DHT22;58893;53.130;8.158;2022-08-19T02:55:04;19.80;71.30
71188;DHT22;58893;53.130;8.158;2022-08-19T02:57:30;19.70;75.70
71188;DHT22;58893;53.130;8.158;2022-08-19T02:59:57;19.70;68.10
71188;DHT22;58893;53.130;8.158;2022-08-19T03:02:23;19.70;68.20
71188;DHT22;58893;53.130;8.158;2022-08-19T03:04:49;19.60;68.30
71188;DHT22;58893;53.130;8.158;2022-08-19T03:07:16;19.60;69.20
71188;DHT22;58893;53.130;8.158;2022-08-19T03:09:42;19.60;70.10
71188;DHT22;58893;53.130;8.158;2022-08-19T03:12:08;19.60;71.30
71188;DHT22;58893;53.130;8.158;2022-08-19T03:14:35;19.60;72.00
71188;DHT22;58893;53.130;8.158;2022-08-19T03:17:01;19.60;71.30
71188;DHT22;58893;53.130;8.158;2022-08-19T03:19:28;19.60;72.80
71188;DHT22;58893;53.130;8.158;2022-08-19T03:21:54;19.50;71.40
71188;DHT22;58893;53.130;8.158;2022-08-19T03:24:21;19.50;72.00
71188;DHT22;58893;53.130;8.158;2022-08-19T03:26:53;19.50;74.60
71188;DHT22;58893;53.130;8.158;2022-08-19T03:29:24;19.50;73.80
71188;DHT22;58893;53.130;8.158;2022-08-19T03:31:50;19.40;77.60
71188;DHT22;58893;53.130;8.158;2022-08-19T03:34:23;19.50;71.00
71188;DHT22;58893;53.130;8.158;2022-08-19T03:36:51;19.40;71.20
71188;DHT22;58893;53.130;8.158;2022-08-19T03:39:18;19.40;72.40
71188;DHT22;58893;53.130;8.158;2022-08-19T03:41:45;19.40;71.60
71188;DHT22;58893;53.130;8.158;2022-08-19T03:44:15;19.40;70.40
71188;DHT22;58893;53.130;8.158;2022-08-19T03:46:43;19.40;70.60
71188;DHT22;58893;53.130;8.158;2022-08-19T03:49:09;19.40;70.30
71188;DHT22;58893;53.130;8.158;2022-08-19T03:51:37;19.40;71.30
71188;DHT22;58893;53.130;8.158;2022-08-19T03:54:05;19.40;72.00
71188;DHT22;58893;53.130;8.158;2022-08-19T03:56:33;19.40;72.20
71188;DHT22;58893;53.130;8.158;2022-08-19T03:59:00;19.30;72.10
71188;DHT22;58893;53.130;8.158;2022-08-19T04:01:28;19.30;73.10
71188;DHT22;58893;53.130;8.158;2022-08-19T04:03:55;19.30;69.50
71188;DHT22;58893;53.130;8.158;2022-08-19T04:06:24;19.30;69.60
71188;DHT22;58893;53.130;8.158;2022-08-19T04:08:52;19.30;69.60
71188;DHT22;58893;53.130;8.158;2022-08-19T04:11:45;19.30;69.50
71188;DHT22;58893;53.130;8.158;2022-08-19T04:14:11;19.30;69.60
71188;DHT22;58893;53.130;8.158;2022-08-19T04:16:38;19.30;69.90
71188;DHT22;58893;53.130;8.158;2022-08-19T04:19:05;19.20;70.00
71188;DHT22;58893;53.130;8.158;2022-08-19T04:21:32;19.20;70.30
71188;DHT22;58893;53.130;8.158;2022-08-19T04:23:58;19.20;70.90
71188;DHT22;58893;53.130;8.158;2022-08-19T04:26:30;19.20;71.70
71188;DHT22;58893;53.130;8.158;2022-08-19T04:29:00;19.20;72.20
71188;DHT22;58893;53.130;8.158;2022-08-19T04:31:28;19.20;73.50
71188;DHT22;58893;53.130;8.158;2022-08-19T04:33:59;19.10;78.00
71188;DHT22;58893;53.130;8.158;2022-08-19T04:36:27;19.10;75.60
71188;DHT22;58893;53.130;8.158;2022-08-19T04:38:59;19.10;75.10
71188;DHT22;58893;53.130;8.158;2022-08-19T04:41:25;19.10;75.00
71188;DHT22;58893;53.130;8.158;2022-08-19T04:44:10;19.10;74.90
71188;DHT22;58893;53.130;8.158;2022-08-19T04:46:36;19.10;74.70
71188;DHT22;58893;53.130;8.158;2022-08-19T04:49:04;19.10;73.60
71188;DHT22;58893;53.130;8.158;2022-08-19T04:51:31;19.10;73.90
71188;DHT22;58893;53.130;8.158;2022-08-19T04:53:57;19.10;74.50
71188;DHT22;58893;53.130;8.158;2022-08-19T04:56:23;19.10;73.80
71188;DHT22;58893;53.130;8.158;2022-08-19T04:58:52;19.10;73.60
71188;DHT22;58893;53.130;8.158;2022-08-19T05:01:23;19.20;73.50
71188;DHT22;58893;53.130;8.158;2022-08-19T05:03:49;19.20;73.60
71188;DHT22;58893;53.130;8.158;2022-08-19T05:06:18;19.20;73.50
71188;DHT22;58893;53.130;8.158;2022-08-19T05:08:45;19.20;73.40
71188;DHT22;58893;53.130;8.158;2022-08-19T05:11:33;19.20;73.70
71188;DHT22;58893;53.130;8.158;2022-08-19T05:14:00;19.30;73.80
71188;DHT22;58893;53.130;8.158;2022-08-19T05:16:27;19.30;73.70
71188;DHT22;58893;53.130;8.158;2022-08-19T05:18:53;19.20;74.20
71188;DHT22;58893;53.130;8.158;2022-08-19T05:21:40;19.20;74.80
71188;DHT22;58893;53.130;8.158;2022-08-19T05:24:24;19.30;75.30
71188;DHT22;58893;53.130;8.158;2022-08-19T05:26:51;19.20;75.60
71188;DHT22;58893;53.130;8.158;2022-08-19T05:29:19;19.30;77.30
71188;DHT22;58893;53.130;8.158;2022-08-19T05:31:46;19.30;75.50
71188;DHT22;58893;53.130;8.158;2022-08-19T05:34:14;19.40;75.70
71188;DHT22;58893;53.130;8.158;2022-08-19T05:36:43;19.40;75.60
71188;DHT22;58893;53.130;8.158;2022-08-19T05:39:12;19.40;75.90
71188;DHT22;58893;53.130;8.158;2022-08-19T05:41:44;19.50;77.00
71188;DHT22;58893;53.130;8.158;2022-08-19T05:44:10;19.50;77.70
71188;DHT22;58893;53.130;8.158;2022-08-19T05:46:37;19.50;77.40
71188;DHT22;58893;53.130;8.158;2022-08-19T05:49:07;19.60;77.60
71188;DHT22;58893;53.130;8.158;2022-08-19T05:51:34;19.60;79.10
71188;DHT22;58893;53.130;8.158;2022-08-19T05:54:01;19.70;75.90
71188;DHT22;58893;53.130;8.158;2022-08-19T05:56:27;19.80;75.70
71188;DHT22;58893;53.130;8.158;2022-08-19T05:58:57;19.90;75.60
71188;DHT22;58893;53.130;8.158;2022-08-19T06:01:24;20.00;74.80
71188;DHT22;58893;53.130;8.158;2022-08-19T06:03:50;20.00;74.70
71188;DHT22;58893;53.130;8.158;2022-08-19T06:06:17;20.10;74.90
71188;DHT22;58893;53.130;8.158;2022-08-19T06:08:43;20.20;75.10
71188;DHT22;58893;53.130;8.158;2022-08-19T06:11:37;20.30;75.20
71188;DHT22;58893;53.130;8.158;2022-08-19T06:14:10;20.40;75.80
71188;DHT22;58893;53.130;8.158;2022-08-19T06:16:38;20.50;76.80
71188;DHT22;58893;53.130;8.158;2022-08-19T06:19:06;20.60;78.00
71188;DHT22;58893;53.130;8.158;2022-08-19T06:21:33;20.70;79.00
71188;DHT22;58893;53.130;8.158;2022-08-19T06:24:01;20.80;81.10
71188;DHT22;58893;53.130;8.158;2022-08-19T06:26:27;20.90;78.20
71188;DHT22;58893;53.130;8.158;2022-08-19T06:28:53;21.00;78.50
71188;DHT22;58893;53.130;8.158;2022-08-19T06:31:26;21.10;81.60
71188;DHT22;58893;53.130;8.158;2022-08-19T06:33:52;21.20;79.50
71188;DHT22;58893;53.130;8.158;2022-08-19T06:36:21;21.30;77.50
71188;DHT22;58893;53.130;8.158;2022-08-19T06:38:47;21.40;78.20
71188;DHT22;58893;53.130;8.158;2022-08-19T06:41:13;21.50;80.50
71188;DHT22;58893;53.130;8.158;2022-08-19T06:43:38;21.50;75.90
71188;DHT22;58893;53.130;8.158;2022-08-19T06:46:10;21.60;76.20
71188;DHT22;58893;53.130;8.158;2022-08-19T06:48:37;21.60;76.70
71188;DHT22;58893;53.130;8.158;2022-08-19T06:51:02;21.70;76.50
71188;DHT22;58893;53.130;8.158;2022-08-19T06:53:31;21.70;76.20
71188;DHT22;58893;53.130;8.158;2022-08-19T06:55:56;21.80;75.40
71188;DHT22;58893;53.130;8.158;2022-08-19T06:58:26;21.80;76.00
71188;DHT22;58893;53.130;8.158;2022-08-19T07:00:51;21.80;77.10
71188;DHT22;58893;53.130;8.158;2022-08-19T07:03:17;21.90;74.80
71188;DHT22;58893;53.130;8.158;2022-08-19T07:05:43;21.90;75.30
71188;DHT22;58893;53.130;8.158;2022-08-19T07:08:09;22.00;75.70
71188;DHT22;58893;53.130;8.158;2022-08-19T07:10:35;22.00;77.70
71188;DHT22;58893;53.130;8.158;2022-08-19T07:13:02;22.00;80.40
71188;DHT22;58893;53.130;8.158;2022-08-19T07:15:29;22.10;75.20
71188;DHT22;58893;53.130;8.158;2022-08-19T07:17:55;22.10;76.00
71188;DHT22;58893;53.130;8.158;2022-08-19T07:20:20;22.20;75.60
71188;DHT22;58893;53.130;8.158;2022-08-19T07:22:46;22.20;75.70
71188;DHT22;58893;53.130;8.158;2022-08-19T07:25:12;22.20;76.30
71188;DHT22;58893;53.130;8.158;2022-08-19T07:27:39;22.30;76.90
71188;DHT22;58893;53.130;8.158;2022-08-19T07:30:05;22.30;75.70
71188;DHT22;58893;53.130;8.158;2022-08-19T07:32:32;22.30;74.90
71188;DHT22;58893;53.130;8.158;2022-08-19T07:34:58;22.30;74.40
71188;DHT22;58893;53.130;8.158;2022-08-19T07:37:25;22.30;74.50
71188;DHT22;58893;53.130;8.158;2022-08-19T07:39:53;22.30;76.10
71188;DHT22;58893;53.130;8.158;2022-08-19T07:42:19;22.30;75.50
71188;DHT22;58893;53.130;8.158;2022-08-19T07:44:46;22.40;76.40
71188;DHT22;58893;53.130;8.158;2022-08-19T07:47:12;22.40;75.30
71188;DHT22;58893;53.130;8.158;2022-08-19T07:49:40;22.40;77.80
71188;DHT22;58893;53.130;8.158;2022-08-19T07:52:08;22.40;75.60
71188;DHT22;58893;53.130;8.158;2022-08-19T07:54:36;22.40;72.70
71188;DHT22;58893;53.130;8.158;2022-08-19T07:57:02;22.40;74.10
71188;DHT22;58893;53.130;8.158;2022-08-19T07:59:28;22.40;74.30
71188;DHT22;58893;53.130;8.158;2022-08-19T08:01:55;22.40;74.80
71188;DHT22;58893;53.130;8.158;2022-08-19T08:04:21;22.50;73.70
71188;DHT22;58893;53.130;8.158;2022-08-19T08:07:07;22.50;73.90
71188;DHT22;58893;53.130;8.158;2022-08-19T08:09:52;22.50;74.80
71188;DHT22;58893;53.130;8.158;2022-08-19T08:12:25;22.60;70.70
71188;DHT22;58893;53.130;8.158;2022-08-19T08:15:00;22.60;69.80
71188;DHT22;58893;53.130;8.158;2022-08-19T08:17:31;22.70;69.70
71188;DHT22;58893;53.130;8.158;2022-08-19T08:19:57;22.70;69.40
71188;DHT22;58893;53.130;8.158;2022-08-19T08:22:23;22.70;69.30
71188;DHT22;58893;53.130;8.158;2022-08-19T08:25:20;22.80;69.10
71188;DHT22;58893;53.130;8.158;2022-08-19T08:27:46;22.80;68.70
71188;DHT22;58893;53.130;8.158;2022-08-19T08:30:18;22.80;68.60
71188;DHT22;58893;53.130;8.158;2022-08-19T08:32:44;22.90;68.40
71188;DHT22;58893;53.130;8.158;2022-08-19T08:35:13;22.90;68.50
71188;DHT22;58893;53.130;8.158;2022-08-19T08:37:39;22.90;68.50
71188;DHT22;58893;53.130;8.158;2022-08-19T08:40:16;22.90;68.40
71188;DHT22;58893;53.130;8.158;2022-08-19T08:42:53;23.00;68.60
71188;DHT22;58893;53.130;8.158;2022-08-19T08:45:24;23.00;68.40
71188;DHT22;58893;53.130;8.158;2022-08-19T08:47:52;23.00;68.40
71188;DHT22;58893;53.130;8.158;2022-08-19T08:52:56;23.00;68.40
71188;DHT22;58893;53.130;8.158;2022-08-19T08:55:27;23.00;68.60
71188;DHT22;58893;53.130;8.158;2022-08-19T08:58:03;23.00;69.20
71188;DHT22;58893;53.130;8.158;2022-08-19T09:00:36;23.00;69.70
71188;DHT22;58893;53.130;8.158;2022-08-19T09:03:03;23.00;70.70
71188;DHT22;58893;53.130;8.158;2022-08-19T09:05:47;23.00;73.30
71188;DHT22;58893;53.130;8.158;2022-08-19T09:11:12;23.10;68.20
71188;DHT22;58893;53.130;8.158;2022-08-19T09:16:21;23.20;69.10
71188;DHT22;58893;53.130;8.158;2022-08-19T09:18:52;23.20;68.90
71188;DHT22;58893;53.130;8.158;2022-08-19T09:21:20;23.20;69.20
71188;DHT22;58893;53.130;8.158;2022-08-19T09:23:48;23.30;70.60
71188;DHT22;58893;53.130;8.158;2022-08-19T09:26:16;23.30;72.00
71188;DHT22;58893;53.130;8.158;2022-08-19T09:28:44;23.30;69.70
71188;DHT22;58893;53.130;8.158;2022-08-19T09:31:16;23.30;69.00
71188;DHT22;58893;53.130;8.158;2022-08-19T09:33:42;23.40;68.90
71188;DHT22;58893;53.130;8.158;2022-08-19T09:36:14;23.40;68.90
71188;DHT22;58893;53.130;8.158;2022-08-19T09:38:40;23.40;68.50
71188;DHT22;58893;53.130;8.158;2022-08-19T09:41:09;23.50;68.50
71188;DHT22;58893;53.130;8.158;2022-08-19T09:43:39;23.40;68.60
71188;DHT22;58893;53.130;8.158;2022-08-19T09:46:05;23.40;68.60
71188;DHT22;58893;53.130;8.158;2022-08-19T09:48:36;23.40;68.00
71188;DHT22;58893;53.130;8.158;2022-08-19T09:51:07;23.40;69.00
71188;DHT22;58893;53.130;8.158;2022-08-19T09:53:34;23.40;69.60
71188;DHT22;58893;53.130;8.158;2022-08-19T09:56:01;23.40;69.00
71188;DHT22;58893;53.130;8.158;2022-08-19T09:58:26;23.50;67.30
71188;DHT22;58893;53.130;8.158;2022-08-19T10:00:57;23.50;65.40
71188;DHT22;58893;53.130;8.158;2022-08-19T10:03:24;23.50;65.40
71188;DHT22;58893;53.130;8.158;2022-08-19T10:05:51;23.50;65.20
71188;DHT22;58893;53.130;8.158;2022-08-19T10:08:19;23.50;65.20
71188;DHT22;58893;53.130;8.158;2022-08-19T10:10:46;23.50;65.40
71188;DHT22;58893;53.130;8.158;2022-08-19T10:13:13;23.50;65.60
71188;DHT22;58893;53.130;8.158;2022-08-19T10:15:38;23.50;66.40
71188;DHT22;58893;53.130;8.158;2022-08-19T10:18:06;23.50;66.20
71188;DHT22;58893;53.130;8.158;2022-08-19T10:20:31;23.50;66.60
71188;DHT22;58893;53.130;8.158;2022-08-19T10:22:57;23.50;68.30
71188;DHT22;58893;53.130;8.158;2022-08-19T10:25:25;23.50;68.40
71188;DHT22;58893;53.130;8.158;2022-08-19T10:27:52;23.50;69.00
71188;DHT22;58893;53.130;8.158;2022-08-19T10:30:18;23.50;69.00
71188;DHT22;58893;53.130;8.158;2022-08-19T10:32:44;23.60;67.50
71188;DHT22;58893;53.130;8.158;2022-08-19T10:35:12;23.60;70.60
71188;DHT22;58893;53.130;8.158;2022-08-19T10:37:38;23.60;66.30
71188;DHT22;58893;53.130;8.158;2022-08-19T10:40:05;23.60;66.50
71188;DHT22;58893;53.130;8.158;2022-08-19T10:42:33;23.60;66.50
71188;DHT22;58893;53.130;8.158;2022-08-19T10:44:59;23.60;64.40
71188;DHT22;58893;53.130;8.158;2022-08-19T10:47:24;23.70;64.50
71188;DHT22;58893;53.130;8.158;2022-08-19T10:49:50;23.70;63.70
71188;DHT22;58893;53.130;8.158;2022-08-19T10:52:34;23.70;63.50
71188;DHT22;58893;53.130;8.158;2022-08-19T10:55:01;23.80;63.60
71188;DHT22;58893;53.130;8.158;2022-08-19T10:57:46;23.80;63.40
71188;DHT22;58893;53.130;8.158;2022-08-19T11:00:12;23.80;63.20
71188;DHT22;58893;53.130;8.158;2022-08-19T11:02:38;23.80;63.50
71188;DHT22;58893;53.130;8.158;2022-08-19T11:05:04;23.90;64.00
71188;DHT22;58893;53.130;8.158;2022-08-19T11:07:32;23.90;63.60
71188;DHT22;58893;53.130;8.158;2022-08-19T11:09:58;24.00;63.60
71188;DHT22;58893;53.130;8.158;2022-08-19T11:12:24;24.00;63.20
71188;DHT22;58893;53.130;8.158;2022-08-19T11:14:50;24.00;62.50
71188;DHT22;58893;53.130;8.158;2022-08-19T11:17:16;24.10;62.90
71188;DHT22;58893;53.130;8.158;2022-08-19T11:19:41;24.10;63.60
71188;DHT22;58893;53.130;8.158;2022-08-19T11:22:08;24.20;63.70
71188;DHT22;58893;53.130;8.158;2022-08-19T11:24:35;24.20;63.40
71188;DHT22;58893;53.130;8.158;2022-08-19T11:27:06;24.20;63.40
71188;DHT22;58893;53.130;8.158;2022-08-19T11:29:35;24.30;63.30
71188;DHT22;58893;53.130;8.158;2022-08-19T11:32:05;24.30;62.60
71188;DHT22;58893;53.130;8.158;2022-08-19T11:34:31;24.30;62.00
71188;DHT22;58893;53.130;8.158;2022-08-19T11:36:57;24.40;62.10
71188;DHT22;58893;53.130;8.158;2022-08-19T11:39:26;24.40;64.60
71188;DHT22;58893;53.130;8.158;2022-08-19T11:41:51;24.50;67.20
71188;DHT22;58893;53.130;8.158;2022-08-19T11:44:17;24.60;65.20
71188;DHT22;58893;53.130;8.158;2022-08-19T11:46:44;24.70;64.80
71188;DHT22;58893;53.130;8.158;2022-08-19T11:49:12;24.80;62.30
71188;DHT22;58893;53.130;8.158;2022-08-19T11:51:38;24.80;62.50
71188;DHT22;58893;53.130;8.158;2022-08-19T11:54:05;24.90;61.70
71188;DHT22;58893;53.130;8.158;2022-08-19T11:56:31;25.00;61.90
71188;DHT22;58893;53.130;8.158;2022-08-19T11:58:57;25.10;62.00
71188;DHT22;58893;53.130;8.158;2022-08-19T12:01:25;25.30;60.20
71188;DHT22;58893;53.130;8.158;2022-08-19T12:03:52;25.30;59.20
71188;DHT22;58893;53.130;8.158;2022-08-19T12:06:22;25.50;58.80
71188;DHT22;58893;53.130;8.158;2022-08-19T12:08:52;25.60;58.20
71188;DHT22;58893;53.130;8.158;2022-08-19T12:11:19;25.70;57.90
71188;DHT22;58893;53.130;8.158;2022-08-19T12:13:45;25.80;57.60
71188;DHT22;58893;53.130;8.158;2022-08-19T12:16:20;25.90;57.20
71188;DHT22;58893;53.130;8.158;2022-08-19T12:18:48;26.00;56.60
71188;DHT22;58893;53.130;8.158;2022-08-19T12:21:19;26.10;56.70
71188;DHT22;58893;53.130;8.158;2022-08-19T12:23:46;26.10;56.40
71188;DHT22;58893;53.130;8.158;2022-08-19T12:26:13;26.20;56.50
71188;DHT22;58893;53.130;8.158;2022-08-19T12:28:38;26.30;56.60
71188;DHT22;58893;53.130;8.158;2022-08-19T12:31:05;26.30;56.60
71188;DHT22;58893;53.130;8.158;2022-08-19T12:33:31;26.40;57.00
71188;DHT22;58893;53.130;8.158;2022-08-19T12:36:02;26.40;57.60
71188;DHT22;58893;53.130;8.158;2022-08-19T12:38:29;26.50;58.10
71188;DHT22;58893;53.130;8.158;2022-08-19T12:40:54;26.50;58.60
71188;DHT22;58893;53.130;8.158;2022-08-19T12:43:20;26.60;60.00
71188;DHT22;58893;53.130;8.158;2022-08-19T12:45:47;26.60;59.60
71188;DHT22;58893;53.130;8.158;2022-08-19T12:48:13;26.60;57.70
71188;DHT22;58893;53.130;8.158;2022-08-19T12:50:41;26.60;58.20
71188;DHT22;58893;53.130;8.158;2022-08-19T12:53:06;26.70;57.60
71188;DHT22;58893;53.130;8.158;2022-08-19T12:55:32;26.70;57.00
71188;DHT22;58893;53.130;8.158;2022-08-19T12:57:58;26.70;56.80
71188;DHT22;58893;53.130;8.158;2022-08-19T13:00:27;26.70;56.60
71188;DHT22;58893;53.130;8.158;2022-08-19T13:02:53;26.70;55.00
71188;DHT22;58893;53.130;8.158;2022-08-19T13:05:22;26.70;54.50
71188;DHT22;58893;53.130;8.158;2022-08-19T13:07:49;26.60;53.90
71188;DHT22;58893;53.130;8.158;2022-08-19T13:10:18;26.60;53.80
71188;DHT22;58893;53.130;8.158;2022-08-19T13:12:46;26.60;54.20
71188;DHT22;58893;53.130;8.158;2022-08-19T13:15:13;26.50;54.40
71188;DHT22;58893;53.130;8.158;2022-08-19T13:17:39;26.50;54.50
71188;DHT22;58893;53.130;8.158;2022-08-19T13:20:09;26.50;53.90
71188;DHT22;58893;53.130;8.158;2022-08-19T13:22:36;26.50;53.70
71188;DHT22;58893;53.130;8.158;2022-08-19T13:25:05;26.40;53.50
71188;DHT22;58893;53.130;8.158;2022-08-19T13:27:32;26.40;53.70
71188;DHT22;58893;53.130;8.158;2022-08-19T13:29:57;26.40;54.10
71188;DHT22;58893;53.130;8.158;2022-08-19T13:32:42;26.30;53.80
71188;DHT22;58893;53.130;8.158;2022-08-19T13:35:26;26.30;53.20
71188;DHT22;58893;53.130;8.158;2022-08-19T13:37:51;26.20;52.90
71188;DHT22;58893;53.130;8.158;2022-08-19T13:40:20;26.20;52.80
71188;DHT22;58893;53.130;8.158;2022-08-19T13:42:50;26.20;52.70
71188;DHT22;58893;53.130;8.158;2022-08-19T13:45:18;26.10;52.80
71188;DHT22;58893;53.130;8.158;2022-08-19T13:47:48;26.10;52.70
71188;DHT22;58893;53.130;8.158;2022-08-19T13:50:17;26.10;52.50
71188;DHT22;58893;53.130;8.158;2022-08-19T13:52:43;26.00;52.20
71188;DHT22;58893;53.130;8.158;2022-08-19T13:55:11;26.00;52.20
71188;DHT22;58893;53.130;8.158;2022-08-19T13:57:37;26.00;51.70
71188;DHT22;58893;53.130;8.158;2022-08-19T14:00:06;26.00;51.50
71188;DHT22;58893;53.130;8.158;2022-08-19T14:02:35;26.00;51.40
71188;DHT22;58893;53.130;8.158;2022-08-19T14:05:03;25.90;51.50
71188;DHT22;58893;53.130;8.158;2022-08-19T14:07:29;25.90;51.80
71188;DHT22;58893;53.130;8.158;2022-08-19T14:09:55;25.90;52.30
71188;DHT22;58893;53.130;8.158;2022-08-19T14:12:21;25.90;52.50
71188;DHT22;58893;53.130;8.158;2022-08-19T14:14:47;25.90;52.70
71188;DHT22;58893;53.130;8.158;2022-08-19T14:17:14;25.90;52.70
71188;DHT22;58893;53.130;8.158;2022-08-19T14:19:40;25.90;52.90
71188;DHT22;58893;53.130;8.158;2022-08-19T14:22:06;25.90;53.10
71188;DHT22;58893;53.130;8.158;2022-08-19T14:24:31;25.90;53.40
71188;DHT22;58893;53.130;8.158;2022-08-19T14:27:00;25.80;53.60
71188;DHT22;58893;53.130;8.158;2022-08-19T14:29:26;25.80;53.90
71188;DHT22;58893;53.130;8.158;2022-08-19T14:31:54;25.80;54.30
71188;DHT22;58893;53.130;8.158;2022-08-19T14:34:22;25.80;54.30
71188;DHT22;58893;53.130;8.158;2022-08-19T14:36:48;25.90;54.50
71188;DHT22;58893;53.130;8.158;2022-08-19T14:39:13;25.80;54.50
71188;DHT22;58893;53.130;8.158;2022-08-19T14:41:41;25.90;54.80
71188;DHT22;58893;53.130;8.158;2022-08-19T14:44:11;25.90;54.90
71188;DHT22;58893;53.130;8.158;2022-08-19T14:46:38;25.90;55.10
71188;DHT22;58893;53.130;8.158;2022-08-19T14:49:04;25.90;55.30
71188;DHT22;58893;53.130;8.158;2022-08-19T14:51:30;25.90;55.30
71188;DHT22;58893;53.130;8.158;2022-08-19T14:53:56;25.90;55.20
71188;DHT22;58893;53.130;8.158;2022-08-19T14:56:25;25.90;55.20
71188;DHT22;58893;53.130;8.158;2022-08-19T14:58:51;25.90;55.30
71188;DHT22;58893;53.130;8.158;2022-08-19T15:01:18;25.90;55.70
71188;DHT22;58893;53.130;8.158;2022-08-19T15:03:46;25.90;55.70
71188;DHT22;58893;53.130;8.158;2022-08-19T15:06:11;25.90;55.60
71188;DHT22;58893;53.130;8.158;2022-08-19T15:08:38;25.90;55.70
71188;DHT22;58893;53.130;8.158;2022-08-19T15:11:11;25.90;55.50
71188;DHT22;58893;53.130;8.158;2022-08-19T15:13:37;26.00;55.60
71188;DHT22;58893;53.130;8.158;2022-08-19T15:16:03;26.00;55.70
71188;DHT22;58893;53.130;8.158;2022-08-19T15:18:29;26.00;55.60
71188;DHT22;58893;53.130;8.158;2022-08-19T15:20:54;26.00;55.70
71188;DHT22;58893;53.130;8.158;2022-08-19T15:23:21;26.00;55.80
71188;DHT22;58893;53.130;8.158;2022-08-19T15:25:47;26.00;55.70
71188;DHT22;58893;53.130;8.158;2022-08-19T15:28:13;26.00;55.60
71188;DHT22;58893;53.130;8.158;2022-08-19T15:30:41;26.00;55.70
71188;DHT22;58893;53.130;8.158;2022-08-19T15:33:10;26.00;55.60
71188;DHT22;58893;53.130;8.158;2022-08-19T15:35:40;26.00;55.70
71188;DHT22;58893;53.130;8.158;2022-08-19T15:38:06;26.00;55.80
71188;DHT22;58893;53.130;8.158;2022-08-19T15:40:32;26.00;56.10
71188;DHT22;58893;53.130;8.158;2022-08-19T15:42:58;26.00;56.50
71188;DHT22;58893;53.130;8.158;2022-08-19T15:45:23;26.00;56.70
71188;DHT22;58893;53.130;8.158;2022-08-19T15:47:57;26.00;56.70